Hutchinson, MN (55350)

12:51 AM CST on January 17, 2017 (GMT -0600)
Hutchinson High School | | Change Station
Active Advisory: Winter Weather Advisory

Elev 1060 ft 44.88 °N, 94.39 °W | Updated 1 minute ago

Overcast
Overcast
29.1 °F
Feels Like 25 °F
N
4.0
Wind Variable Wind from North
Gusts 5.0 mph

Today
High -- | Low -- °F
--% Chance of Precip.
Yesterday
High -- | Low -- °F
Precip. -- in
Pressure 29.97 in
Visibility 10.0 miles
Clouds Overcast 800 ft
Windchill 25 °F
Dew Point 25 °F
Humidity 84%
Rainfall 0.00 in
Snow Depth Not available.
7:50 AM 5:05 PM
Waning Gibbous, 75% visible
METAR KHCD 170633Z AUTO 34006KT 10SM OVC008 M01/M04 A2997 RMK AO2 T10111040
Pressure 29.97 in
Visibility 10.0 miles
Clouds Overcast 800 ft
Windchill 25 °F
Dew Point 25 °F
Humidity 84%
Rainfall 0.00 in
Snow Depth Not available.
7:50 AM 5:05 PM
Waning Gibbous, 75% visible
METAR KHCD 170633Z AUTO 34006KT 10SM OVC008 M01/M04 A2997 RMK AO2 T10111040

Get Your Daily Forecast Email!

Thanks for signing up!

Be on the lookout for a verification email in your inbox.

You'll start receiving the daily forecast at 8 AM.

×

10-Day Weather Forecast

Almanac

Astronomy

Jan. 17, 2017 Rise Set
Actual Time
Civil Twilight
Nautical Twilight
Astronomical Twilight
Moon
Length of Visible Light
Length of Day
Tomorrow will be .
, % of the Moon is Illuminated

Today's Extremes

State Highs State Lows

Community

WunderPhotos

Upload Photos

1,962,540 photos uploaded!

WunderBlog® & News

Nearby

Air Quality

  Air Quality AQ Index Pollutant
Not available.

Snow Depth

Station Depth Elevation

Earthquake Activity

City Distance Mag. Time & Date
Minimum magnitude displayed is 2.5.

Coastal Water Temperatures

Place Temperature

Stations

Nearby Weather Stations

Station Location Temp. Windchill Dew Point Humidity Wind Precip. Elev Updated Type
                   

Watches & Warnings

Winter Weather Advisory
Issued: 10:25 PM CST Jan. 16, 2017 – National Weather Service

... Winter Weather Advisory remains in effect until 6 am CST
Tuesday...

* freezing rain through the early morning hours... with a
changeover to snow before ending. After the bulk of the
precipitation ends overnight... light freezing drizzle is
possible prior to daybreak.

* Ice accumulations of up to a quarter inch are expected along
with wet snow accumulations of up to 1 inch.

* Look for reduced visibilities at times.

* Plan on slippery Road conditions.

Precautionary/preparedness actions...

A Winter Weather Advisory means that periods of snow... sleet or
freezing rain will cause travel difficulties. Be prepared for
slippery roads and limited visibilities... and use caution while
driving. The latest Road conditions for the state you are calling
from can be obtained by calling 5 1 1.